Kelsey 2 — D7BG — position and weather

sailwx.info

Track history (hours):
 
Tides and Currents Weather Stations Pressure Air Temp Water Temp Dewpoint Dewpoint Depression Visibility Wind Speed Wind Dir Waves Ship Positions

Kelsey 2

Last reported at 2017-Sep-14 12:49 UTC. Time now 2017-Sep-22 08:13 UTC.
Position N 33°54' E 134°59'.

Length 121 m; draft 5.5 m.

Type: Ship. MMSI: 440128000.

Date/timePositionNaut miles runAvg speedWind from/ knotsBaromVisibWave heightAir tempDewpointWater temp
2017-Sep-14 12:49N 33°54' E 134°59'514.8
2017-Sep-14 12:30N 33°59' E 134°59'714.3
2017-Sep-14 12:00N 34°06' E 134°59'714.6
2017-Sep-14 11:30N 34°13' E 134°59'814.6
2017-Sep-14 10:58N 34°21' E 134°60'614.1
2017-Sep-14 10:30N 34°26' E 135°05'714.2
2017-Sep-14 10:00N 34°31' E 135°11'713.3
2017-Sep-14 09:30N 34°36' E 135°16'510.9
2017-Sep-14 09:00N 34°41' E 135°18'1 0.2
2017-Sep-14 00:06N 34°42' E 135°17'0 0.1
2017-Sep-14 00:00N 34°42' E 135°17'3 5.1
2017-Sep-13 23:30N 34°40' E 135°18'1 1.4
2017-Sep-13 22:51N 34°39' E 135°18'0 0.0
2017-Sep-13 22:27N 34°39' E 135°18'0 0.0
2017-Sep-13 21:51N 34°39' E 135°18'0 0.0
2017-Sep-13 21:27N 34°39' E 135°18'0 0.0
2017-Sep-13 20:57N 34°39' E 135°18'0 0.0
2017-Sep-13 20:27N 34°39' E 135°18'0 0.0
2017-Sep-13 19:51N 34°39' E 135°18'0 0.0
2017-Sep-13 19:27N 34°39' E 135°18'0 0.0
2017-Sep-13 18:51N 34°39' E 135°18'0 0.0
2017-Sep-13 18:27N 34°39' E 135°18'0 0.0
2017-Sep-13 18:00N 34°39' E 135°18'0 0.0
2017-Sep-13 17:24N 34°39' E 135°18'0 0.0
2017-Sep-13 17:00N 34°39' E 135°18'0 0.1
2017-Sep-13 16:30N 34°39' E 135°18'0 0.0
2017-Sep-13 15:54N 34°39' E 135°18'0 0.0
2017-Sep-13 15:30N 34°39' E 135°18'0 0.0
2017-Sep-13 15:00N 34°39' E 135°18'0 0.0
2017-Sep-13 14:30N 34°39' E 135°18'0 0.0
2017-Sep-13 14:00N 34°39' E 135°18'0 0.0
2017-Sep-13 13:30N 34°39' E 135°18'0 0.1
2017-Sep-13 12:54N 34°39' E 135°18'0 0.0
2017-Sep-13 12:30N 34°39' E 135°18'0 0.4
2017-Sep-13 12:00N 34°39' E 135°18'4 7.1
2017-Sep-13 11:30N 34°37' E 135°21'4 8.6
2017-Sep-13 11:00N 34°35' E 135°26'0 0.0
2017-Sep-12 22:30N 34°35' E 135°26'2 3.4
2017-Sep-12 21:59N 34°36' E 135°24'2 2.0
2017-Sep-12 21:09N 34°36' E 135°22'0 0.0
2017-Sep-12 20:57N 34°36' E 135°22'0 0.0
2017-Sep-12 20:21N 34°36' E 135°22'0 0.0
2017-Sep-12 19:57N 34°36' E 135°22'0 0.0
2017-Sep-12 19:21N 34°36' E 135°22'0 0.0
2017-Sep-12 18:57N 34°36' E 135°22'0 0.0
2017-Sep-12 18:21N 34°36' E 135°22'0 0.0
2017-Sep-12 17:57N 34°36' E 135°22'0 0.0
2017-Sep-12 17:15N 34°36' E 135°22'0 0.0
2017-Sep-12 16:57N 34°36' E 135°22'0 0.0
2017-Sep-12 16:27N 34°36' E 135°22'0 0.0
2017-Sep-12 15:57N 34°36' E 135°22'0 0.0
2017-Sep-12 15:27N 34°36' E 135°22'0 0.1
2017-Sep-12 14:57N 34°36' E 135°22'0 0.0
2017-Sep-12 14:21N 34°36' E 135°22'0 0.0
2017-Sep-12 14:00N 34°36' E 135°22'1 1.2
2017-Sep-12 13:30N 34°36' E 135°22'2 5.0
2017-Sep-12 13:00N 34°35' E 135°19'612.6
2017-Sep-12 12:31N 34°30' E 135°14'713.8
2017-Sep-12 12:00N 34°25' E 135°08'714.1
2017-Sep-12 11:30N 34°20' E 135°02'612.9
2017-Sep-12 11:00N 34°14' E 134°59'714.7
2017-Sep-12 10:30N 34°07' E 134°60'914.8
2017-Sep-12 09:55N 33°58' E 134°60'22611.2
2017-Sep-11 13:42N 34°54' E 139°25'212.6
2017-Sep-11 13:30N 34°56' E 139°27'713.1
2017-Sep-11 13:00N 34°60' E 139°33'612.9
2017-Sep-11 12:30N 35°04' E 139°39'612.7
2017-Sep-11 12:00N 35°09' E 139°45'713.4
2017-Sep-11 11:31N 35°15' E 139°46'713.1
2017-Sep-11 11:00N 35°21' E 139°42'612.1
2017-Sep-11 10:30N 35°26' E 139°46'713.2
2017-Sep-11 10:00N 35°30' E 139°52'612.9
2017-Sep-11 09:30N 35°33' E 139°59'6 0.6
2017-Sep-10 23:04N 35°36' E 140°05'0 0.3
2017-Sep-10 22:57N 35°36' E 140°05'1 2.4
2017-Sep-10 22:20N 35°35' E 140°04'2 5.9
2017-Sep-10 22:00N 35°34' E 140°02'1 0.1
2017-Sep-10 11:05N 35°34' E 140°01'0 0.1
2017-Sep-10 10:59N 35°34' E 140°01'0 0.0
2017-Sep-10 10:29N 35°34' E 140°01'1 2.3
2017-Sep-10 10:01N 35°35' E 140°02'3 0.5
2017-Sep-10 04:14N 35°36' E 140°05'1 5.3
2017-Sep-10 04:00N 35°35' E 140°04'5 9.1
2017-Sep-10 03:30N 35°34' E 139°59'3 6.1
2017-Sep-10 03:00N 35°32' E 139°56'4 8.8
2017-Sep-10 02:30N 35°29' E 139°52'611.3
2017-Sep-10 02:00N 35°25' E 139°47'611.3
2017-Sep-10 01:30N 35°20' E 139°44'611.3
2017-Sep-10 01:00N 35°15' E 139°47'612.9
2017-Sep-10 00:30N 35°08' E 139°47'713.2
2017-Sep-10 00:00N 35°03' E 139°42'612.5
2017-Sep-09 23:31N 34°59' E 139°36'612.6
2017-Sep-09 23:00N 34°55' E 139°30'  
Track history (hours):
 
Tides and Currents Weather Stations Pressure Air Temp Water Temp Dewpoint Dewpoint Depression Visibility Wind Speed Wind Dir Waves Ship Positions

Kelsey 2

Last reported at 2017-Sep-14 12:49 UTC. Time now 2017-Sep-22 08:13 UTC.
Position N 33°54' E 134°59'.

Length 121 m; draft 5.5 m.

Type: Ship. MMSI: 440128000.

Date/timePositionNaut miles runAvg speedWind from/ knotsBaromVisibWave heightAir tempDewpointWater temp
2017-Sep-14 12:49N 33°54' E 134°59'514.8
2017-Sep-14 12:30N 33°59' E 134°59'714.3
2017-Sep-14 12:00N 34°06' E 134°59'714.6
2017-Sep-14 11:30N 34°13' E 134°59'814.6
2017-Sep-14 10:58N 34°21' E 134°60'614.1
2017-Sep-14 10:30N 34°26' E 135°05'714.2
2017-Sep-14 10:00N 34°31' E 135°11'713.3
2017-Sep-14 09:30N 34°36' E 135°16'510.9
2017-Sep-14 09:00N 34°41' E 135°18'1 0.2
2017-Sep-14 00:06N 34°42' E 135°17'0 0.1
2017-Sep-14 00:00N 34°42' E 135°17'3 5.1
2017-Sep-13 23:30N 34°40' E 135°18'1 1.4
2017-Sep-13 22:51N 34°39' E 135°18'0 0.0
2017-Sep-13 22:27N 34°39' E 135°18'0 0.0
2017-Sep-13 21:51N 34°39' E 135°18'0 0.0
2017-Sep-13 21:27N 34°39' E 135°18'0 0.0
2017-Sep-13 20:57N 34°39' E 135°18'0 0.0
2017-Sep-13 20:27N 34°39' E 135°18'0 0.0
2017-Sep-13 19:51N 34°39' E 135°18'0 0.0
2017-Sep-13 19:27N 34°39' E 135°18'0 0.0
2017-Sep-13 18:51N 34°39' E 135°18'0 0.0
2017-Sep-13 18:27N 34°39' E 135°18'0 0.0
2017-Sep-13 18:00N 34°39' E 135°18'0 0.0
2017-Sep-13 17:24N 34°39' E 135°18'0 0.0
2017-Sep-13 17:00N 34°39' E 135°18'0 0.1
2017-Sep-13 16:30N 34°39' E 135°18'0 0.0
2017-Sep-13 15:54N 34°39' E 135°18'0 0.0
2017-Sep-13 15:30N 34°39' E 135°18'0 0.0
2017-Sep-13 15:00N 34°39' E 135°18'0 0.0
2017-Sep-13 14:30N 34°39' E 135°18'0 0.0
2017-Sep-13 14:00N 34°39' E 135°18'0 0.0
2017-Sep-13 13:30N 34°39' E 135°18'0 0.1
2017-Sep-13 12:54N 34°39' E 135°18'0 0.0
2017-Sep-13 12:30N 34°39' E 135°18'0 0.4
2017-Sep-13 12:00N 34°39' E 135°18'4 7.1
2017-Sep-13 11:30N 34°37' E 135°21'4 8.6
2017-Sep-13 11:00N 34°35' E 135°26'0 0.0
2017-Sep-12 22:30N 34°35' E 135°26'2 3.4
2017-Sep-12 21:59N 34°36' E 135°24'2 2.0
2017-Sep-12 21:09N 34°36' E 135°22'0 0.0
2017-Sep-12 20:57N 34°36' E 135°22'0 0.0
2017-Sep-12 20:21N 34°36' E 135°22'0 0.0
2017-Sep-12 19:57N 34°36' E 135°22'0 0.0
2017-Sep-12 19:21N 34°36' E 135°22'0 0.0
2017-Sep-12 18:57N 34°36' E 135°22'0 0.0
2017-Sep-12 18:21N 34°36' E 135°22'0 0.0
2017-Sep-12 17:57N 34°36' E 135°22'0 0.0
2017-Sep-12 17:15N 34°36' E 135°22'0 0.0
2017-Sep-12 16:57N 34°36' E 135°22'0 0.0
2017-Sep-12 16:27N 34°36' E 135°22'0 0.0
2017-Sep-12 15:57N 34°36' E 135°22'0 0.0
2017-Sep-12 15:27N 34°36' E 135°22'0 0.1
2017-Sep-12 14:57N 34°36' E 135°22'0 0.0
2017-Sep-12 14:21N 34°36' E 135°22'0 0.0
2017-Sep-12 14:00N 34°36' E 135°22'1 1.2
2017-Sep-12 13:30N 34°36' E 135°22'2 5.0
2017-Sep-12 13:00N 34°35' E 135°19'612.6
2017-Sep-12 12:31N 34°30' E 135°14'713.8
2017-Sep-12 12:00N 34°25' E 135°08'714.1
2017-Sep-12 11:30N 34°20' E 135°02'612.9
2017-Sep-12 11:00N 34°14' E 134°59'714.7
2017-Sep-12 10:30N 34°07' E 134°60'914.8
2017-Sep-12 09:55N 33°58' E 134°60'22611.2
2017-Sep-11 13:42N 34°54' E 139°25'212.6
2017-Sep-11 13:30N 34°56' E 139°27'713.1
2017-Sep-11 13:00N 34°60' E 139°33'612.9
2017-Sep-11 12:30N 35°04' E 139°39'612.7
2017-Sep-11 12:00N 35°09' E 139°45'713.4
2017-Sep-11 11:31N 35°15' E 139°46'713.1
2017-Sep-11 11:00N 35°21' E 139°42'612.1
2017-Sep-11 10:30N 35°26' E 139°46'713.2
2017-Sep-11 10:00N 35°30' E 139°52'612.9
2017-Sep-11 09:30N 35°33' E 139°59'6 0.6
2017-Sep-10 23:04N 35°36' E 140°05'0 0.3
2017-Sep-10 22:57N 35°36' E 140°05'1 2.4
2017-Sep-10 22:20N 35°35' E 140°04'2 5.9
2017-Sep-10 22:00N 35°34' E 140°02'1 0.1
2017-Sep-10 11:05N 35°34' E 140°01'0 0.1
2017-Sep-10 10:59N 35°34' E 140°01'0 0.0
2017-Sep-10 10:29N 35°34' E 140°01'1 2.3
2017-Sep-10 10:01N 35°35' E 140°02'3 0.5
2017-Sep-10 04:14N 35°36' E 140°05'1 5.3
2017-Sep-10 04:00N 35°35' E 140°04'5 9.1
2017-Sep-10 03:30N 35°34' E 139°59'3 6.1
2017-Sep-10 03:00N 35°32' E 139°56'4 8.8
2017-Sep-10 02:30N 35°29' E 139°52'611.3
2017-Sep-10 02:00N 35°25' E 139°47'611.3
2017-Sep-10 01:30N 35°20' E 139°44'611.3
2017-Sep-10 01:00N 35°15' E 139°47'612.9
2017-Sep-10 00:30N 35°08' E 139°47'713.2
2017-Sep-10 00:00N 35°03' E 139°42'612.5
2017-Sep-09 23:31N 34°59' E 139°36'612.6
2017-Sep-09 23:00N 34°55' E 139°30'  

Dump ship's entire track history